sensor_id;sensor_type;location;lat;lon;timestamp;P1;durP1;ratioP1;P2;durP2;ratioP2
13611;SDS011;6877;51.436;6.774;2024-03-06T00:01:04;22.75;;;12.50;;
13611;SDS011;6877;51.436;6.774;2024-03-06T00:03:36;20.42;;;10.45;;
13611;SDS011;6877;51.436;6.774;2024-03-06T00:06:07;24.77;;;12.13;;
13611;SDS011;6877;51.436;6.774;2024-03-06T00:08:34;24.55;;;12.38;;
13611;SDS011;6877;51.436;6.774;2024-03-06T00:11:05;25.02;;;12.38;;
13611;SDS011;6877;51.436;6.774;2024-03-06T00:13:37;20.75;;;12.13;;
13611;SDS011;6877;51.436;6.774;2024-03-06T00:16:03;19.75;;;11.43;;
13611;SDS011;6877;51.436;6.774;2024-03-06T00:18:30;20.38;;;11.20;;
13611;SDS011;6877;51.436;6.774;2024-03-06T00:20:56;19.88;;;9.88;;
13611;SDS011;6877;51.436;6.774;2024-03-06T00:23:23;21.52;;;10.80;;
13611;SDS011;6877;51.436;6.774;2024-03-06T00:25:49;23.80;;;10.95;;
13611;SDS011;6877;51.436;6.774;2024-03-06T00:28:15;21.45;;;10.38;;
13611;SDS011;6877;51.436;6.774;2024-03-06T00:30:47;23.98;;;10.38;;
13611;SDS011;6877;51.436;6.774;2024-03-06T00:33:13;18.08;;;10.80;;
13611;SDS011;6877;51.436;6.774;2024-03-06T00:35:45;23.35;;;10.65;;
13611;SDS011;6877;51.436;6.774;2024-03-06T00:38:11;19.65;;;11.23;;
13611;SDS011;6877;51.436;6.774;2024-03-06T00:40:44;17.27;;;9.60;;
13611;SDS011;6877;51.436;6.774;2024-03-06T00:43:10;25.05;;;12.40;;
13611;SDS011;6877;51.436;6.774;2024-03-06T00:45:42;20.20;;;10.90;;
13611;SDS011;6877;51.436;6.774;2024-03-06T00:48:13;23.45;;;11.70;;
13611;SDS011;6877;51.436;6.774;2024-03-06T00:50:40;22.30;;;11.35;;
13611;SDS011;6877;51.436;6.774;2024-03-06T00:53:11;17.05;;;10.40;;
13611;SDS011;6877;51.436;6.774;2024-03-06T00:55:43;24.05;;;11.50;;
13611;SDS011;6877;51.436;6.774;2024-03-06T00:58:14;21.88;;;11.27;;
13611;SDS011;6877;51.436;6.774;2024-03-06T01:00:40;22.77;;;11.65;;
13611;SDS011;6877;51.436;6.774;2024-03-06T01:03:07;21.13;;;10.95;;
13611;SDS011;6877;51.436;6.774;2024-03-06T01:05:33;22.55;;;11.57;;
13611;SDS011;6877;51.436;6.774;2024-03-06T01:08:00;21.20;;;12.20;;
13611;SDS011;6877;51.436;6.774;2024-03-06T01:10:31;22.65;;;10.73;;
13611;SDS011;6877;51.436;6.774;2024-03-06T01:13:03;21.80;;;11.60;;
13611;SDS011;6877;51.436;6.774;2024-03-06T01:15:34;19.92;;;10.25;;
13611;SDS011;6877;51.436;6.774;2024-03-06T01:18:06;20.15;;;9.95;;
13611;SDS011;6877;51.436;6.774;2024-03-06T01:20:37;21.38;;;11.35;;
13611;SDS011;6877;51.436;6.774;2024-03-06T01:23:04;24.58;;;12.57;;
13611;SDS011;6877;51.436;6.774;2024-03-06T01:25:30;24.65;;;12.95;;
13611;SDS011;6877;51.436;6.774;2024-03-06T01:27:57;21.50;;;11.88;;
13611;SDS011;6877;51.436;6.774;2024-03-06T01:30:23;22.35;;;12.52;;
13611;SDS011;6877;51.436;6.774;2024-03-06T01:32:49;23.55;;;11.70;;
13611;SDS011;6877;51.436;6.774;2024-03-06T01:35:21;19.70;;;11.38;;
13611;SDS011;6877;51.436;6.774;2024-03-06T01:37:54;21.48;;;12.70;;
13611;SDS011;6877;51.436;6.774;2024-03-06T01:40:20;25.20;;;14.50;;
13611;SDS011;6877;51.436;6.774;2024-03-06T01:42:52;22.60;;;12.52;;
13611;SDS011;6877;51.436;6.774;2024-03-06T01:45:18;23.08;;;9.93;;
13611;SDS011;6877;51.436;6.774;2024-03-06T01:47:51;19.30;;;10.43;;
13611;SDS011;6877;51.436;6.774;2024-03-06T01:50:22;20.73;;;11.30;;
13611;SDS011;6877;51.436;6.774;2024-03-06T01:52:49;23.48;;;10.88;;
13611;SDS011;6877;51.436;6.774;2024-03-06T01:55:17;29.10;;;13.38;;
13611;SDS011;6877;51.436;6.774;2024-03-06T01:57:49;28.83;;;13.30;;
13611;SDS011;6877;51.436;6.774;2024-03-06T02:00:15;26.33;;;14.55;;
13611;SDS011;6877;51.436;6.774;2024-03-06T02:02:47;26.52;;;14.07;;
13611;SDS011;6877;51.436;6.774;2024-03-06T02:05:19;33.30;;;15.82;;
13611;SDS011;6877;51.436;6.774;2024-03-06T02:07:51;22.50;;;12.73;;
13611;SDS011;6877;51.436;6.774;2024-03-06T02:10:20;48.08;;;21.10;;
13611;SDS011;6877;51.436;6.774;2024-03-06T02:12:47;46.60;;;21.75;;
13611;SDS011;6877;51.436;6.774;2024-03-06T02:15:20;45.03;;;21.33;;
13611;SDS011;6877;51.436;6.774;2024-03-06T02:17:52;57.70;;;23.77;;
13611;SDS011;6877;51.436;6.774;2024-03-06T02:20:24;54.80;;;24.10;;
13611;SDS011;6877;51.436;6.774;2024-03-06T02:22:51;46.67;;;21.40;;
13611;SDS011;6877;51.436;6.774;2024-03-06T02:25:18;48.85;;;23.58;;
13611;SDS011;6877;51.436;6.774;2024-03-06T02:27:45;37.45;;;18.75;;
13611;SDS011;6877;51.436;6.774;2024-03-06T02:30:19;45.53;;;19.15;;
13611;SDS011;6877;51.436;6.774;2024-03-06T02:32:46;30.52;;;15.80;;
13611;SDS011;6877;51.436;6.774;2024-03-06T02:35:18;32.92;;;15.55;;
13611;SDS011;6877;51.436;6.774;2024-03-06T02:37:49;36.67;;;16.13;;
13611;SDS011;6877;51.436;6.774;2024-03-06T02:40:16;32.92;;;14.13;;
13611;SDS011;6877;51.436;6.774;2024-03-06T02:42:42;29.13;;;13.73;;
13611;SDS011;6877;51.436;6.774;2024-03-06T02:45:13;31.38;;;14.30;;
13611;SDS011;6877;51.436;6.774;2024-03-06T02:47:40;30.95;;;14.80;;
13611;SDS011;6877;51.436;6.774;2024-03-06T02:50:07;28.13;;;14.13;;
13611;SDS011;6877;51.436;6.774;2024-03-06T02:52:33;26.50;;;12.90;;
13611;SDS011;6877;51.436;6.774;2024-03-06T02:55:05;27.17;;;12.73;;
13611;SDS011;6877;51.436;6.774;2024-03-06T02:57:31;24.95;;;12.15;;
13611;SDS011;6877;51.436;6.774;2024-03-06T02:59:58;22.60;;;10.98;;
13611;SDS011;6877;51.436;6.774;2024-03-06T03:02:25;24.13;;;11.48;;
13611;SDS011;6877;51.436;6.774;2024-03-06T03:04:52;22.20;;;11.73;;
13611;SDS011;6877;51.436;6.774;2024-03-06T03:07:18;26.63;;;12.93;;
13611;SDS011;6877;51.436;6.774;2024-03-06T03:09:54;18.25;;;10.00;;
13611;SDS011;6877;51.436;6.774;2024-03-06T03:12:25;28.65;;;14.00;;
13611;SDS011;6877;51.436;6.774;2024-03-06T03:14:52;26.95;;;13.73;;
13611;SDS011;6877;51.436;6.774;2024-03-06T03:17:23;24.30;;;12.63;;
13611;SDS011;6877;51.436;6.774;2024-03-06T03:19:49;25.98;;;12.85;;
13611;SDS011;6877;51.436;6.774;2024-03-06T03:22:21;30.33;;;13.32;;
13611;SDS011;6877;51.436;6.774;2024-03-06T03:24:52;23.35;;;12.05;;
13611;SDS011;6877;51.436;6.774;2024-03-06T03:27:24;26.80;;;12.85;;
13611;SDS011;6877;51.436;6.774;2024-03-06T03:29:55;23.85;;;12.73;;
13611;SDS011;6877;51.436;6.774;2024-03-06T03:32:26;29.10;;;13.93;;
13611;SDS011;6877;51.436;6.774;2024-03-06T03:34:53;35.72;;;14.48;;
13611;SDS011;6877;51.436;6.774;2024-03-06T03:37:19;27.50;;;13.02;;
13611;SDS011;6877;51.436;6.774;2024-03-06T03:39:46;25.35;;;13.88;;
13611;SDS011;6877;51.436;6.774;2024-03-06T03:42:17;27.88;;;12.80;;
13611;SDS011;6877;51.436;6.774;2024-03-06T03:44:43;35.20;;;13.32;;
13611;SDS011;6877;51.436;6.774;2024-03-06T03:47:10;20.45;;;10.80;;
13611;SDS011;6877;51.436;6.774;2024-03-06T03:49:41;22.15;;;11.18;;
13611;SDS011;6877;51.436;6.774;2024-03-06T03:52:13;23.90;;;12.38;;
13611;SDS011;6877;51.436;6.774;2024-03-06T03:54:40;28.25;;;12.85;;
13611;SDS011;6877;51.436;6.774;2024-03-06T03:57:06;32.30;;;15.52;;
13611;SDS011;6877;51.436;6.774;2024-03-06T03:59:34;23.85;;;12.00;;
13611;SDS011;6877;51.436;6.774;2024-03-06T04:02:06;24.02;;;10.75;;
13611;SDS011;6877;51.436;6.774;2024-03-06T04:04:38;19.50;;;10.52;;
13611;SDS011;6877;51.436;6.774;2024-03-06T04:07:09;23.38;;;11.77;;
13611;SDS011;6877;51.436;6.774;2024-03-06T04:09:35;24.45;;;12.32;;
13611;SDS011;6877;51.436;6.774;2024-03-06T04:12:07;26.98;;;12.55;;
13611;SDS011;6877;51.436;6.774;2024-03-06T04:14:33;23.52;;;10.60;;
13611;SDS011;6877;51.436;6.774;2024-03-06T04:17:05;28.60;;;12.43;;
13611;SDS011;6877;51.436;6.774;2024-03-06T04:19:31;22.20;;;10.95;;
13611;SDS011;6877;51.436;6.774;2024-03-06T04:21:59;39.00;;;16.30;;
13611;SDS011;6877;51.436;6.774;2024-03-06T04:24:25;24.40;;;13.18;;
13611;SDS011;6877;51.436;6.774;2024-03-06T04:26:57;31.45;;;15.63;;
13611;SDS011;6877;51.436;6.774;2024-03-06T04:29:24;30.73;;;15.48;;
13611;SDS011;6877;51.436;6.774;2024-03-06T04:31:55;45.25;;;22.25;;
13611;SDS011;6877;51.436;6.774;2024-03-06T04:34:21;43.78;;;18.05;;
13611;SDS011;6877;51.436;6.774;2024-03-06T04:36:49;46.58;;;18.20;;
13611;SDS011;6877;51.436;6.774;2024-03-06T04:39:15;40.67;;;20.13;;
13611;SDS011;6877;51.436;6.774;2024-03-06T04:41:47;63.47;;;24.45;;
13611;SDS011;6877;51.436;6.774;2024-03-06T04:44:19;46.38;;;19.95;;
13611;SDS011;6877;51.436;6.774;2024-03-06T04:46:50;40.58;;;19.15;;
13611;SDS011;6877;51.436;6.774;2024-03-06T04:49:17;58.00;;;22.98;;
13611;SDS011;6877;51.436;6.774;2024-03-06T04:51:48;53.83;;;21.60;;
13611;SDS011;6877;51.436;6.774;2024-03-06T04:54:14;44.40;;;20.10;;
13611;SDS011;6877;51.436;6.774;2024-03-06T04:56:41;39.30;;;17.70;;
13611;SDS011;6877;51.436;6.774;2024-03-06T04:59:07;56.33;;;25.35;;
13611;SDS011;6877;51.436;6.774;2024-03-06T05:01:33;45.20;;;19.90;;
13611;SDS011;6877;51.436;6.774;2024-03-06T05:04:05;38.90;;;19.13;;
13611;SDS011;6877;51.436;6.774;2024-03-06T05:06:49;33.90;;;16.75;;
13611;SDS011;6877;51.436;6.774;2024-03-06T05:09:33;37.42;;;19.23;;
13611;SDS011;6877;51.436;6.774;2024-03-06T05:12:18;35.00;;;15.88;;
13611;SDS011;6877;51.436;6.774;2024-03-06T05:15:02;35.67;;;16.95;;
13611;SDS011;6877;51.436;6.774;2024-03-06T05:17:46;37.90;;;16.70;;
13611;SDS011;6877;51.436;6.774;2024-03-06T05:20:30;30.08;;;14.77;;
13611;SDS011;6877;51.436;6.774;2024-03-06T05:23:14;27.55;;;14.85;;
13611;SDS011;6877;51.436;6.774;2024-03-06T05:26:01;33.72;;;14.27;;
13611;SDS011;6877;51.436;6.774;2024-03-06T05:28:45;27.95;;;13.20;;
13611;SDS011;6877;51.436;6.774;2024-03-06T05:31:29;25.63;;;12.65;;
13611;SDS011;6877;51.436;6.774;2024-03-06T05:34:13;26.33;;;12.82;;
13611;SDS011;6877;51.436;6.774;2024-03-06T05:36:57;30.73;;;13.52;;
13611;SDS011;6877;51.436;6.774;2024-03-06T05:39:41;25.08;;;13.02;;
13611;SDS011;6877;51.436;6.774;2024-03-06T05:42:26;50.53;;;21.50;;
13611;SDS011;6877;51.436;6.774;2024-03-06T05:45:10;43.30;;;17.40;;
13611;SDS011;6877;51.436;6.774;2024-03-06T05:47:54;61.13;;;21.95;;
13611;SDS011;6877;51.436;6.774;2024-03-06T05:50:38;41.72;;;19.40;;
13611;SDS011;6877;51.436;6.774;2024-03-06T05:53:22;41.42;;;18.15;;
13611;SDS011;6877;51.436;6.774;2024-03-06T05:56:07;46.92;;;20.60;;
13611;SDS011;6877;51.436;6.774;2024-03-06T05:58:51;43.83;;;21.25;;
13611;SDS011;6877;51.436;6.774;2024-03-06T06:01:23;36.53;;;17.13;;
13611;SDS011;6877;51.436;6.774;2024-03-06T06:03:54;43.65;;;19.55;;
13611;SDS011;6877;51.436;6.774;2024-03-06T06:06:21;44.83;;;18.65;;
13611;SDS011;6877;51.436;6.774;2024-03-06T06:08:47;53.75;;;22.35;;
13611;SDS011;6877;51.436;6.774;2024-03-06T06:11:19;38.50;;;16.88;;
13611;SDS011;6877;51.436;6.774;2024-03-06T06:13:45;33.15;;;16.17;;
13611;SDS011;6877;51.436;6.774;2024-03-06T06:16:11;42.38;;;18.70;;
13611;SDS011;6877;51.436;6.774;2024-03-06T06:18:40;49.72;;;19.50;;
13611;SDS011;6877;51.436;6.774;2024-03-06T06:21:08;38.05;;;16.80;;
13611;SDS011;6877;51.436;6.774;2024-03-06T06:23:35;37.90;;;16.98;;
13611;SDS011;6877;51.436;6.774;2024-03-06T06:26:06;70.68;;;29.38;;
13611;SDS011;6877;51.436;6.774;2024-03-06T06:28:33;46.75;;;18.75;;
13611;SDS011;6877;51.436;6.774;2024-03-06T06:30:59;25.92;;;14.27;;
13611;SDS011;6877;51.436;6.774;2024-03-06T06:33:26;27.60;;;14.13;;
13611;SDS011;6877;51.436;6.774;2024-03-06T06:35:57;28.42;;;12.95;;
13611;SDS011;6877;51.436;6.774;2024-03-06T06:38:28;26.45;;;12.52;;
13611;SDS011;6877;51.436;6.774;2024-03-06T06:41:00;25.88;;;13.10;;
13611;SDS011;6877;51.436;6.774;2024-03-06T06:43:31;47.55;;;22.10;;
13611;SDS011;6877;51.436;6.774;2024-03-06T06:45:58;56.15;;;26.00;;
13611;SDS011;6877;51.436;6.774;2024-03-06T06:48:30;66.18;;;27.88;;
13611;SDS011;6877;51.436;6.774;2024-03-06T06:51:02;73.65;;;29.02;;
13611;SDS011;6877;51.436;6.774;2024-03-06T06:53:34;73.97;;;29.70;;
13611;SDS011;6877;51.436;6.774;2024-03-06T06:56:00;87.07;;;32.60;;
13611;SDS011;6877;51.436;6.774;2024-03-06T06:58:26;88.20;;;31.40;;
13611;SDS011;6877;51.436;6.774;2024-03-06T07:00:58;67.47;;;28.38;;
13611;SDS011;6877;51.436;6.774;2024-03-06T07:03:24;67.72;;;27.60;;
13611;SDS011;6877;51.436;6.774;2024-03-06T07:05:56;68.15;;;30.23;;
13611;SDS011;6877;51.436;6.774;2024-03-06T07:08:28;56.95;;;25.98;;
13611;SDS011;6877;51.436;6.774;2024-03-06T07:10:54;58.05;;;24.80;;
13611;SDS011;6877;51.436;6.774;2024-03-06T07:13:21;63.05;;;24.85;;
13611;SDS011;6877;51.436;6.774;2024-03-06T07:15:52;67.82;;;27.80;;
13611;SDS011;6877;51.436;6.774;2024-03-06T07:18:19;78.40;;;28.95;;
13611;SDS011;6877;51.436;6.774;2024-03-06T07:20:50;73.18;;;28.52;;
13611;SDS011;6877;51.436;6.774;2024-03-06T07:23:17;65.30;;;28.35;;
13611;SDS011;6877;51.436;6.774;2024-03-06T07:25:48;71.78;;;28.15;;
13611;SDS011;6877;51.436;6.774;2024-03-06T07:28:14;87.68;;;32.20;;
13611;SDS011;6877;51.436;6.774;2024-03-06T07:30:46;71.25;;;33.55;;
13611;SDS011;6877;51.436;6.774;2024-03-06T07:33:13;76.32;;;33.28;;
13611;SDS011;6877;51.436;6.774;2024-03-06T07:35:45;85.95;;;31.70;;
13611;SDS011;6877;51.436;6.774;2024-03-06T07:38:11;84.40;;;33.58;;
13611;SDS011;6877;51.436;6.774;2024-03-06T07:40:43;82.70;;;31.45;;
13611;SDS011;6877;51.436;6.774;2024-03-06T07:43:09;69.85;;;30.38;;
13611;SDS011;6877;51.436;6.774;2024-03-06T07:45:37;82.88;;;31.75;;
13611;SDS011;6877;51.436;6.774;2024-03-06T07:48:03;63.63;;;30.20;;
13611;SDS011;6877;51.436;6.774;2024-03-06T07:50:35;68.78;;;28.70;;
13611;SDS011;6877;51.436;6.774;2024-03-06T07:53:06;64.82;;;28.52;;
13611;SDS011;6877;51.436;6.774;2024-03-06T07:55:33;62.55;;;28.95;;
13611;SDS011;6877;51.436;6.774;2024-03-06T07:57:59;64.50;;;27.30;;
13611;SDS011;6877;51.436;6.774;2024-03-06T08:00:26;58.67;;;27.40;;
13611;SDS011;6877;51.436;6.774;2024-03-06T08:02:53;53.15;;;26.08;;
13611;SDS011;6877;51.436;6.774;2024-03-06T08:05:24;55.70;;;27.58;;
13611;SDS011;6877;51.436;6.774;2024-03-06T08:07:56;49.97;;;25.25;;
13611;SDS011;6877;51.436;6.774;2024-03-06T08:10:27;55.42;;;26.52;;
13611;SDS011;6877;51.436;6.774;2024-03-06T08:12:53;49.60;;;24.13;;
13611;SDS011;6877;51.436;6.774;2024-03-06T08:15:25;48.35;;;23.60;;
13611;SDS011;6877;51.436;6.774;2024-03-06T08:17:56;37.45;;;19.90;;
13611;SDS011;6877;51.436;6.774;2024-03-06T08:20:23;43.10;;;22.95;;
13611;SDS011;6877;51.436;6.774;2024-03-06T08:22:49;42.20;;;23.33;;
13611;SDS011;6877;51.436;6.774;2024-03-06T08:25:21;44.20;;;20.88;;
13611;SDS011;6877;51.436;6.774;2024-03-06T08:27:47;45.55;;;22.30;;
13611;SDS011;6877;51.436;6.774;2024-03-06T08:30:18;41.13;;;21.55;;
13611;SDS011;6877;51.436;6.774;2024-03-06T08:32:51;38.95;;;20.95;;
13611;SDS011;6877;51.436;6.774;2024-03-06T08:35:22;36.92;;;19.58;;
13611;SDS011;6877;51.436;6.774;2024-03-06T08:37:55;41.10;;;20.92;;
13611;SDS011;6877;51.436;6.774;2024-03-06T08:40:26;38.70;;;20.13;;
13611;SDS011;6877;51.436;6.774;2024-03-06T08:42:59;36.58;;;20.10;;
13611;SDS011;6877;51.436;6.774;2024-03-06T08:45:30;40.05;;;20.10;;
13611;SDS011;6877;51.436;6.774;2024-03-06T08:48:02;40.88;;;21.48;;
13611;SDS011;6877;51.436;6.774;2024-03-06T08:50:34;53.00;;;24.20;;
13611;SDS011;6877;51.436;6.774;2024-03-06T08:53:01;49.75;;;24.65;;
13611;SDS011;6877;51.436;6.774;2024-03-06T08:55:30;48.65;;;22.67;;
13611;SDS011;6877;51.436;6.774;2024-03-06T08:57:57;53.63;;;24.10;;
13611;SDS011;6877;51.436;6.774;2024-03-06T09:00:29;40.78;;;21.52;;
13611;SDS011;6877;51.436;6.774;2024-03-06T09:03:00;47.25;;;22.38;;
13611;SDS011;6877;51.436;6.774;2024-03-06T09:05:27;58.90;;;24.83;;
13611;SDS011;6877;51.436;6.774;2024-03-06T09:07:53;50.33;;;23.52;;
13611;SDS011;6877;51.436;6.774;2024-03-06T09:10:19;53.03;;;24.38;;
13611;SDS011;6877;51.436;6.774;2024-03-06T09:12:46;50.85;;;23.75;;
13611;SDS011;6877;51.436;6.774;2024-03-06T09:15:14;49.65;;;22.70;;
13611;SDS011;6877;51.436;6.774;2024-03-06T09:17:46;48.22;;;24.40;;
13611;SDS011;6877;51.436;6.774;2024-03-06T09:20:18;52.80;;;25.70;;
13611;SDS011;6877;51.436;6.774;2024-03-06T09:22:44;51.15;;;25.05;;
13611;SDS011;6877;51.436;6.774;2024-03-06T09:25:16;51.15;;;24.10;;
13611;SDS011;6877;51.436;6.774;2024-03-06T09:27:47;47.67;;;24.48;;
13611;SDS011;6877;51.436;6.774;2024-03-06T09:30:14;52.22;;;23.77;;
13611;SDS011;6877;51.436;6.774;2024-03-06T09:32:46;48.70;;;23.27;;
13611;SDS011;6877;51.436;6.774;2024-03-06T09:35:18;48.33;;;24.17;;
13611;SDS011;6877;51.436;6.774;2024-03-06T09:37:49;47.92;;;25.80;;
13611;SDS011;6877;51.436;6.774;2024-03-06T09:40:20;41.35;;;20.92;;
13611;SDS011;6877;51.436;6.774;2024-03-06T09:42:49;44.10;;;22.80;;
13611;SDS011;6877;51.436;6.774;2024-03-06T09:45:16;48.95;;;22.48;;
13611;SDS011;6877;51.436;6.774;2024-03-06T09:47:43;43.15;;;23.30;;
13611;SDS011;6877;51.436;6.774;2024-03-06T09:50:10;44.22;;;21.73;;
13611;SDS011;6877;51.436;6.774;2024-03-06T09:52:42;45.08;;;21.00;;
13611;SDS011;6877;51.436;6.774;2024-03-06T09:55:12;39.63;;;19.95;;
13611;SDS011;6877;51.436;6.774;2024-03-06T09:57:40;45.10;;;22.92;;
13611;SDS011;6877;51.436;6.774;2024-03-06T10:00:07;42.92;;;22.80;;
13611;SDS011;6877;51.436;6.774;2024-03-06T10:02:36;43.40;;;22.98;;
13611;SDS011;6877;51.436;6.774;2024-03-06T10:05:04;41.13;;;23.45;;
13611;SDS011;6877;51.436;6.774;2024-03-06T10:07:39;42.65;;;22.95;;
13611;SDS011;6877;51.436;6.774;2024-03-06T10:10:07;43.15;;;22.92;;
13611;SDS011;6877;51.436;6.774;2024-03-06T10:12:36;41.60;;;21.85;;
13611;SDS011;6877;51.436;6.774;2024-03-06T10:15:02;44.38;;;21.17;;
13611;SDS011;6877;51.436;6.774;2024-03-06T10:17:35;40.35;;;21.38;;
13611;SDS011;6877;51.436;6.774;2024-03-06T10:20:22;38.95;;;22.02;;
13611;SDS011;6877;51.436;6.774;2024-03-06T10:22:54;35.35;;;19.15;;
13611;SDS011;6877;51.436;6.774;2024-03-06T10:25:26;35.92;;;19.38;;
13611;SDS011;6877;51.436;6.774;2024-03-06T10:28:08;38.15;;;20.17;;
13611;SDS011;6877;51.436;6.774;2024-03-06T10:30:41;35.05;;;19.55;;
13611;SDS011;6877;51.436;6.774;2024-03-06T10:33:13;37.65;;;19.20;;
13611;SDS011;6877;51.436;6.774;2024-03-06T10:35:46;34.33;;;18.45;;
13611;SDS011;6877;51.436;6.774;2024-03-06T10:38:19;33.53;;;18.05;;
13611;SDS011;6877;51.436;6.774;2024-03-06T10:40:52;33.00;;;18.08;;
13611;SDS011;6877;51.436;6.774;2024-03-06T10:43:25;33.38;;;17.73;;
13611;SDS011;6877;51.436;6.774;2024-03-06T10:46:00;32.40;;;17.70;;
13611;SDS011;6877;51.436;6.774;2024-03-06T10:48:30;30.60;;;17.58;;
13611;SDS011;6877;51.436;6.774;2024-03-06T10:50:57;26.98;;;15.32;;
13611;SDS011;6877;51.436;6.774;2024-03-06T10:53:26;29.25;;;17.17;;
13611;SDS011;6877;51.436;6.774;2024-03-06T10:55:54;32.58;;;18.67;;
13611;SDS011;6877;51.436;6.774;2024-03-06T10:58:28;33.35;;;19.08;;
13611;SDS011;6877;51.436;6.774;2024-03-06T11:00:55;29.35;;;16.17;;
13611;SDS011;6877;51.436;6.774;2024-03-06T11:03:24;29.83;;;17.33;;
13611;SDS011;6877;51.436;6.774;2024-03-06T11:05:52;28.80;;;16.92;;
13611;SDS011;6877;51.436;6.774;2024-03-06T11:08:23;27.75;;;15.57;;
13611;SDS011;6877;51.436;6.774;2024-03-06T11:10:51;29.58;;;18.95;;
13611;SDS011;6877;51.436;6.774;2024-03-06T11:13:23;27.52;;;16.40;;
13611;SDS011;6877;51.436;6.774;2024-03-06T11:16:00;25.00;;;15.82;;
13611;SDS011;6877;51.436;6.774;2024-03-06T11:23:36;25.90;;;15.25;;
13611;SDS011;6877;51.436;6.774;2024-03-06T11:26:42;27.30;;;16.25;;
13611;SDS011;6877;51.436;6.774;2024-03-06T11:29:09;29.45;;;15.80;;
13611;SDS011;6877;51.436;6.774;2024-03-06T11:31:35;33.30;;;18.65;;
13611;SDS011;6877;51.436;6.774;2024-03-06T11:34:10;35.85;;;18.45;;
13611;SDS011;6877;51.436;6.774;2024-03-06T11:36:37;41.13;;;19.67;;
13611;SDS011;6877;51.436;6.774;2024-03-06T11:39:07;38.25;;;20.58;;
13611;SDS011;6877;51.436;6.774;2024-03-06T11:44:21;45.63;;;20.65;;
13611;SDS011;6877;51.436;6.774;2024-03-06T11:49:29;46.45;;;25.42;;
13611;SDS011;6877;51.436;6.774;2024-03-06T11:52:04;43.97;;;24.23;;
13611;SDS011;6877;51.436;6.774;2024-03-06T11:54:36;47.40;;;22.25;;
13611;SDS011;6877;51.436;6.774;2024-03-06T11:57:08;49.25;;;24.08;;
13611;SDS011;6877;51.436;6.774;2024-03-06T11:59:41;51.15;;;23.33;;
13611;SDS011;6877;51.436;6.774;2024-03-06T12:02:13;49.30;;;25.08;;
13611;SDS011;6877;51.436;6.774;2024-03-06T12:04:40;50.15;;;25.27;;
13611;SDS011;6877;51.436;6.774;2024-03-06T12:07:07;40.92;;;21.38;;
13611;SDS011;6877;51.436;6.774;2024-03-06T12:09:40;47.40;;;22.52;;
13611;SDS011;6877;51.436;6.774;2024-03-06T12:12:11;47.50;;;21.25;;
13611;SDS011;6877;51.436;6.774;2024-03-06T12:14:43;47.08;;;21.83;;
13611;SDS011;6877;51.436;6.774;2024-03-06T12:17:13;41.30;;;20.27;;
13611;SDS011;6877;51.436;6.774;2024-03-06T12:19:42;43.33;;;20.85;;
13611;SDS011;6877;51.436;6.774;2024-03-06T12:22:11;41.05;;;19.10;;
13611;SDS011;6877;51.436;6.774;2024-03-06T12:24:38;42.47;;;19.02;;
13611;SDS011;6877;51.436;6.774;2024-03-06T12:27:06;40.35;;;19.73;;
13611;SDS011;6877;51.436;6.774;2024-03-06T12:29:38;41.40;;;20.33;;
13611;SDS011;6877;51.436;6.774;2024-03-06T12:32:17;36.00;;;17.83;;
13611;SDS011;6877;51.436;6.774;2024-03-06T12:34:55;40.90;;;18.80;;
13611;SDS011;6877;51.436;6.774;2024-03-06T12:37:28;35.70;;;16.23;;
13611;SDS011;6877;51.436;6.774;2024-03-06T12:39:59;32.08;;;16.90;;
13611;SDS011;6877;51.436;6.774;2024-03-06T12:42:31;35.45;;;18.42;;
13611;SDS011;6877;51.436;6.774;2024-03-06T12:44:58;36.88;;;16.63;;
13611;SDS011;6877;51.436;6.774;2024-03-06T12:47:24;35.45;;;16.30;;
13611;SDS011;6877;51.436;6.774;2024-03-06T12:49:56;28.85;;;15.57;;
13611;SDS011;6877;51.436;6.774;2024-03-06T12:52:22;33.63;;;16.02;;
13611;SDS011;6877;51.436;6.774;2024-03-06T12:54:54;24.95;;;14.18;;
13611;SDS011;6877;51.436;6.774;2024-03-06T12:57:20;35.10;;;16.00;;
13611;SDS011;6877;51.436;6.774;2024-03-06T12:59:47;31.20;;;13.88;;
13611;SDS011;6877;51.436;6.774;2024-03-06T13:02:13;28.20;;;14.45;;
13611;SDS011;6877;51.436;6.774;2024-03-06T13:04:45;30.38;;;15.70;;
13611;SDS011;6877;51.436;6.774;2024-03-06T13:07:16;30.88;;;15.95;;
13611;SDS011;6877;51.436;6.774;2024-03-06T13:09:47;29.45;;;14.25;;
13611;SDS011;6877;51.436;6.774;2024-03-06T13:12:19;20.55;;;10.45;;
13611;SDS011;6877;51.436;6.774;2024-03-06T13:14:46;30.20;;;11.43;;
13611;SDS011;6877;51.436;6.774;2024-03-06T13:17:12;22.17;;;10.48;;
13611;SDS011;6877;51.436;6.774;2024-03-06T13:19:44;24.55;;;11.73;;
13611;SDS011;6877;51.436;6.774;2024-03-06T13:22:15;21.63;;;11.05;;
13611;SDS011;6877;51.436;6.774;2024-03-06T13:24:47;25.20;;;10.95;;
13611;SDS011;6877;51.436;6.774;2024-03-06T13:27:14;23.10;;;11.88;;
13611;SDS011;6877;51.436;6.774;2024-03-06T13:29:45;20.05;;;10.68;;
13611;SDS011;6877;51.436;6.774;2024-03-06T13:32:12;22.52;;;11.40;;
13611;SDS011;6877;51.436;6.774;2024-03-06T13:34:38;24.83;;;11.05;;
13611;SDS011;6877;51.436;6.774;2024-03-06T13:37:10;22.50;;;10.63;;
13611;SDS011;6877;51.436;6.774;2024-03-06T13:39:41;16.70;;;8.57;;
13611;SDS011;6877;51.436;6.774;2024-03-06T13:42:13;18.40;;;8.35;;
13611;SDS011;6877;51.436;6.774;2024-03-06T13:44:39;15.18;;;8.45;;
13611;SDS011;6877;51.436;6.774;2024-03-06T13:47:06;19.73;;;9.30;;
13611;SDS011;6877;51.436;6.774;2024-03-06T13:49:39;14.88;;;7.85;;
13611;SDS011;6877;51.436;6.774;2024-03-06T13:52:11;18.75;;;7.82;;
13611;SDS011;6877;51.436;6.774;2024-03-06T13:54:44;13.93;;;7.13;;
13611;SDS011;6877;51.436;6.774;2024-03-06T13:57:11;14.60;;;7.32;;
13611;SDS011;6877;51.436;6.774;2024-03-06T13:59:42;11.95;;;7.20;;
13611;SDS011;6877;51.436;6.774;2024-03-06T14:02:09;14.73;;;7.75;;
13611;SDS011;6877;51.436;6.774;2024-03-06T14:04:35;17.83;;;9.18;;
13611;SDS011;6877;51.436;6.774;2024-03-06T14:07:07;22.75;;;9.30;;
13611;SDS011;6877;51.436;6.774;2024-03-06T14:09:38;25.45;;;10.52;;
13611;SDS011;6877;51.436;6.774;2024-03-06T14:12:05;19.98;;;10.40;;
13611;SDS011;6877;51.436;6.774;2024-03-06T14:14:37;21.55;;;9.80;;
13611;SDS011;6877;51.436;6.774;2024-03-06T14:17:06;31.77;;;11.82;;
13611;SDS011;6877;51.436;6.774;2024-03-06T14:19:33;20.30;;;9.82;;
13611;SDS011;6877;51.436;6.774;2024-03-06T14:22:04;23.52;;;10.35;;
13611;SDS011;6877;51.436;6.774;2024-03-06T14:24:32;19.65;;;10.27;;
13611;SDS011;6877;51.436;6.774;2024-03-06T14:27:03;25.23;;;10.70;;
13611;SDS011;6877;51.436;6.774;2024-03-06T14:29:35;16.75;;;9.43;;
13611;SDS011;6877;51.436;6.774;2024-03-06T14:32:07;27.45;;;11.27;;
13611;SDS011;6877;51.436;6.774;2024-03-06T14:34:38;20.13;;;9.68;;
13611;SDS011;6877;51.436;6.774;2024-03-06T14:37:05;21.95;;;9.40;;
13611;SDS011;6877;51.436;6.774;2024-03-06T14:39:31;18.40;;;9.35;;
13611;SDS011;6877;51.436;6.774;2024-03-06T14:41:58;20.42;;;9.32;;
13611;SDS011;6877;51.436;6.774;2024-03-06T14:44:31;18.98;;;9.57;;
13611;SDS011;6877;51.436;6.774;2024-03-06T14:47:02;19.50;;;10.25;;
13611;SDS011;6877;51.436;6.774;2024-03-06T14:49:34;22.33;;;11.95;;
13611;SDS011;6877;51.436;6.774;2024-03-06T14:52:01;22.42;;;11.88;;
13611;SDS011;6877;51.436;6.774;2024-03-06T14:54:33;30.08;;;11.27;;
13611;SDS011;6877;51.436;6.774;2024-03-06T14:57:00;18.02;;;10.40;;
13611;SDS011;6877;51.436;6.774;2024-03-06T14:59:27;22.58;;;10.18;;
13611;SDS011;6877;51.436;6.774;2024-03-06T15:01:53;19.52;;;10.48;;
13611;SDS011;6877;51.436;6.774;2024-03-06T15:04:20;22.15;;;9.43;;